sensor_id;sensor_type;location;lat;lon;timestamp;P1;durP1;ratioP1;P2;durP2;ratioP2
46815;SDS011;32787;53.316;8.670;2022-08-21T00:01:20;8.48;;;2.70;;
46815;SDS011;32787;53.316;8.670;2022-08-21T00:03:52;6.68;;;2.55;;
46815;SDS011;32787;53.316;8.670;2022-08-21T00:06:18;8.80;;;2.70;;
46815;SDS011;32787;53.316;8.670;2022-08-21T00:08:44;5.60;;;2.40;;
46815;SDS011;32787;53.316;8.670;2022-08-21T00:11:10;7.40;;;2.67;;
46815;SDS011;32787;53.316;8.670;2022-08-21T00:13:35;7.78;;;2.50;;
46815;SDS011;32787;53.316;8.670;2022-08-21T00:16:01;7.15;;;2.65;;
46815;SDS011;32787;53.316;8.670;2022-08-21T00:18:27;5.95;;;2.40;;
46815;SDS011;32787;53.316;8.670;2022-08-21T00:20:53;5.63;;;2.30;;
46815;SDS011;32787;53.316;8.670;2022-08-21T00:23:19;6.97;;;2.58;;
46815;SDS011;32787;53.316;8.670;2022-08-21T00:25:46;7.45;;;2.80;;
46815;SDS011;32787;53.316;8.670;2022-08-21T00:28:12;6.18;;;2.70;;
46815;SDS011;32787;53.316;8.670;2022-08-21T00:30:39;5.93;;;2.58;;
46815;SDS011;32787;53.316;8.670;2022-08-21T00:33:05;6.28;;;2.38;;
46815;SDS011;32787;53.316;8.670;2022-08-21T00:35:32;5.68;;;2.50;;
46815;SDS011;32787;53.316;8.670;2022-08-21T00:38:01;5.70;;;2.17;;
46815;SDS011;32787;53.316;8.670;2022-08-21T00:40:30;7.03;;;2.70;;
46815;SDS011;32787;53.316;8.670;2022-08-21T00:43:03;6.65;;;2.58;;
46815;SDS011;32787;53.316;8.670;2022-08-21T00:45:31;7.93;;;2.65;;
46815;SDS011;32787;53.316;8.670;2022-08-21T00:47:57;6.78;;;2.40;;
46815;SDS011;32787;53.316;8.670;2022-08-21T00:50:26;7.32;;;2.60;;
46815;SDS011;32787;53.316;8.670;2022-08-21T00:52:56;6.78;;;2.47;;
46815;SDS011;32787;53.316;8.670;2022-08-21T00:55:22;6.72;;;2.38;;
46815;SDS011;32787;53.316;8.670;2022-08-21T00:57:50;5.57;;;2.42;;
46815;SDS011;32787;53.316;8.670;2022-08-21T01:00:22;8.25;;;2.53;;
46815;SDS011;32787;53.316;8.670;2022-08-21T01:02:53;5.63;;;2.63;;
46815;SDS011;32787;53.316;8.670;2022-08-21T01:05:19;6.10;;;2.47;;
46815;SDS011;32787;53.316;8.670;2022-08-21T01:07:45;7.80;;;2.60;;
46815;SDS011;32787;53.316;8.670;2022-08-21T01:10:11;5.25;;;2.38;;
46815;SDS011;32787;53.316;8.670;2022-08-21T01:12:37;9.25;;;3.00;;
46815;SDS011;32787;53.316;8.670;2022-08-21T01:15:05;7.32;;;2.65;;
46815;SDS011;32787;53.316;8.670;2022-08-21T01:17:32;6.65;;;2.45;;
46815;SDS011;32787;53.316;8.670;2022-08-21T01:19:59;7.38;;;2.67;;
46815;SDS011;32787;53.316;8.670;2022-08-21T01:22:26;6.30;;;2.67;;
46815;SDS011;32787;53.316;8.670;2022-08-21T01:24:52;5.70;;;2.42;;
46815;SDS011;32787;53.316;8.670;2022-08-21T01:27:17;6.10;;;2.40;;
46815;SDS011;32787;53.316;8.670;2022-08-21T01:29:49;7.80;;;2.33;;
46815;SDS011;32787;53.316;8.670;2022-08-21T01:32:19;7.55;;;2.50;;
46815;SDS011;32787;53.316;8.670;2022-08-21T01:34:46;7.28;;;2.28;;
46815;SDS011;32787;53.316;8.670;2022-08-21T01:37:13;5.28;;;2.45;;
46815;SDS011;32787;53.316;8.670;2022-08-21T01:39:40;6.50;;;2.30;;
46815;SDS011;32787;53.316;8.670;2022-08-21T01:42:07;7.22;;;2.40;;
46815;SDS011;32787;53.316;8.670;2022-08-21T01:44:33;8.57;;;2.55;;
46815;SDS011;32787;53.316;8.670;2022-08-21T01:47:00;5.55;;;2.33;;
46815;SDS011;32787;53.316;8.670;2022-08-21T01:49:28;8.05;;;2.78;;
46815;SDS011;32787;53.316;8.670;2022-08-21T01:51:54;5.18;;;2.25;;
46815;SDS011;32787;53.316;8.670;2022-08-21T01:54:20;7.28;;;2.70;;
46815;SDS011;32787;53.316;8.670;2022-08-21T01:56:47;7.80;;;2.58;;
46815;SDS011;32787;53.316;8.670;2022-08-21T01:59:13;6.50;;;2.60;;
46815;SDS011;32787;53.316;8.670;2022-08-21T02:01:39;6.10;;;2.53;;
46815;SDS011;32787;53.316;8.670;2022-08-21T02:04:06;5.50;;;2.25;;
46815;SDS011;32787;53.316;8.670;2022-08-21T02:06:33;5.15;;;2.33;;
46815;SDS011;32787;53.316;8.670;2022-08-21T02:09:00;5.90;;;2.65;;
46815;SDS011;32787;53.316;8.670;2022-08-21T02:11:26;5.97;;;2.10;;
46815;SDS011;32787;53.316;8.670;2022-08-21T02:13:52;5.03;;;2.40;;
46815;SDS011;32787;53.316;8.670;2022-08-21T02:16:18;8.05;;;2.85;;
46815;SDS011;32787;53.316;8.670;2022-08-21T02:18:43;5.30;;;2.20;;
46815;SDS011;32787;53.316;8.670;2022-08-21T02:21:09;5.60;;;2.60;;
46815;SDS011;32787;53.316;8.670;2022-08-21T02:23:35;7.63;;;2.45;;
46815;SDS011;32787;53.316;8.670;2022-08-21T02:26:02;8.40;;;2.90;;
46815;SDS011;32787;53.316;8.670;2022-08-21T02:28:29;6.45;;;2.70;;
46815;SDS011;32787;53.316;8.670;2022-08-21T02:30:55;6.28;;;2.10;;
46815;SDS011;32787;53.316;8.670;2022-08-21T02:33:21;7.60;;;2.25;;
46815;SDS011;32787;53.316;8.670;2022-08-21T02:35:48;5.95;;;2.45;;
46815;SDS011;32787;53.316;8.670;2022-08-21T02:38:15;7.55;;;2.60;;
46815;SDS011;32787;53.316;8.670;2022-08-21T02:40:44;6.07;;;2.50;;
46815;SDS011;32787;53.316;8.670;2022-08-21T02:43:12;7.00;;;2.13;;
46815;SDS011;32787;53.316;8.670;2022-08-21T02:45:38;6.30;;;2.38;;
46815;SDS011;32787;53.316;8.670;2022-08-21T02:48:06;9.35;;;2.03;;
46815;SDS011;32787;53.316;8.670;2022-08-21T02:50:35;5.78;;;2.45;;
46815;SDS011;32787;53.316;8.670;2022-08-21T02:53:06;7.65;;;2.15;;
46815;SDS011;32787;53.316;8.670;2022-08-21T02:55:33;6.78;;;2.35;;
46815;SDS011;32787;53.316;8.670;2022-08-21T02:58:01;6.03;;;2.50;;
46815;SDS011;32787;53.316;8.670;2022-08-21T03:00:28;6.20;;;2.20;;
46815;SDS011;32787;53.316;8.670;2022-08-21T03:02:55;7.22;;;2.30;;
46815;SDS011;32787;53.316;8.670;2022-08-21T03:05:21;6.07;;;2.15;;
46815;SDS011;32787;53.316;8.670;2022-08-21T03:07:48;8.43;;;2.38;;
46815;SDS011;32787;53.316;8.670;2022-08-21T03:10:15;6.43;;;2.55;;
46815;SDS011;32787;53.316;8.670;2022-08-21T03:12:41;6.70;;;2.50;;
46815;SDS011;32787;53.316;8.670;2022-08-21T03:15:08;6.55;;;2.50;;
46815;SDS011;32787;53.316;8.670;2022-08-21T03:17:36;8.63;;;2.20;;
46815;SDS011;32787;53.316;8.670;2022-08-21T03:20:03;9.05;;;2.38;;
46815;SDS011;32787;53.316;8.670;2022-08-21T03:22:30;6.95;;;2.78;;
46815;SDS011;32787;53.316;8.670;2022-08-21T03:24:55;7.28;;;2.60;;
46815;SDS011;32787;53.316;8.670;2022-08-21T03:27:22;6.00;;;2.63;;
46815;SDS011;32787;53.316;8.670;2022-08-21T03:29:51;5.63;;;2.55;;
46815;SDS011;32787;53.316;8.670;2022-08-21T03:32:18;6.32;;;2.40;;
46815;SDS011;32787;53.316;8.670;2022-08-21T03:34:44;6.22;;;2.50;;
46815;SDS011;32787;53.316;8.670;2022-08-21T03:37:10;7.97;;;2.63;;
46815;SDS011;32787;53.316;8.670;2022-08-21T03:39:36;8.13;;;2.72;;
46815;SDS011;32787;53.316;8.670;2022-08-21T03:42:02;7.03;;;2.60;;
46815;SDS011;32787;53.316;8.670;2022-08-21T03:44:29;6.38;;;2.97;;
46815;SDS011;32787;53.316;8.670;2022-08-21T03:46:55;8.73;;;2.97;;
46815;SDS011;32787;53.316;8.670;2022-08-21T03:49:22;5.50;;;2.28;;
46815;SDS011;32787;53.316;8.670;2022-08-21T03:51:48;5.53;;;2.60;;
46815;SDS011;32787;53.316;8.670;2022-08-21T03:54:14;6.95;;;2.28;;
46815;SDS011;32787;53.316;8.670;2022-08-21T03:56:40;9.88;;;2.97;;
46815;SDS011;32787;53.316;8.670;2022-08-21T03:59:05;7.00;;;2.55;;
46815;SDS011;32787;53.316;8.670;2022-08-21T04:01:31;7.80;;;2.42;;
46815;SDS011;32787;53.316;8.670;2022-08-21T04:03:57;7.43;;;2.22;;
46815;SDS011;32787;53.316;8.670;2022-08-21T04:06:22;7.38;;;2.20;;
46815;SDS011;32787;53.316;8.670;2022-08-21T04:08:48;5.22;;;2.28;;
46815;SDS011;32787;53.316;8.670;2022-08-21T04:11:14;7.90;;;2.40;;
46815;SDS011;32787;53.316;8.670;2022-08-21T04:13:40;4.78;;;1.98;;
46815;SDS011;32787;53.316;8.670;2022-08-21T04:16:06;9.82;;;2.83;;
46815;SDS011;32787;53.316;8.670;2022-08-21T04:18:32;7.57;;;3.05;;
46815;SDS011;32787;53.316;8.670;2022-08-21T04:20:58;10.88;;;2.92;;
46815;SDS011;32787;53.316;8.670;2022-08-21T04:23:25;5.00;;;2.40;;
46815;SDS011;32787;53.316;8.670;2022-08-21T04:25:52;6.10;;;2.85;;
46815;SDS011;32787;53.316;8.670;2022-08-21T04:28:18;6.75;;;2.45;;
46815;SDS011;32787;53.316;8.670;2022-08-21T04:30:45;5.07;;;2.50;;
46815;SDS011;32787;53.316;8.670;2022-08-21T04:33:11;8.30;;;3.15;;
46815;SDS011;32787;53.316;8.670;2022-08-21T04:35:37;6.80;;;2.63;;
46815;SDS011;32787;53.316;8.670;2022-08-21T04:38:02;6.80;;;2.63;;
46815;SDS011;32787;53.316;8.670;2022-08-21T04:40:28;7.57;;;3.28;;
46815;SDS011;32787;53.316;8.670;2022-08-21T04:42:55;10.02;;;2.65;;
46815;SDS011;32787;53.316;8.670;2022-08-21T04:45:26;7.57;;;3.05;;
46815;SDS011;32787;53.316;8.670;2022-08-21T04:47:54;6.28;;;2.53;;
46815;SDS011;32787;53.316;8.670;2022-08-21T04:50:22;6.13;;;2.63;;
46815;SDS011;32787;53.316;8.670;2022-08-21T04:53:14;5.40;;;2.42;;
46815;SDS011;32787;53.316;8.670;2022-08-21T04:55:43;6.53;;;2.45;;
46815;SDS011;32787;53.316;8.670;2022-08-21T04:58:11;8.55;;;3.10;;
46815;SDS011;32787;53.316;8.670;2022-08-21T05:00:39;7.15;;;2.38;;
46815;SDS011;32787;53.316;8.670;2022-08-21T05:03:06;6.38;;;2.08;;
46815;SDS011;32787;53.316;8.670;2022-08-21T05:05:34;7.32;;;2.20;;
46815;SDS011;32787;53.316;8.670;2022-08-21T05:08:01;5.50;;;2.08;;
46815;SDS011;32787;53.316;8.670;2022-08-21T05:10:28;7.20;;;2.38;;
46815;SDS011;32787;53.316;8.670;2022-08-21T05:12:54;5.72;;;2.63;;
46815;SDS011;32787;53.316;8.670;2022-08-21T05:15:20;5.50;;;2.30;;
46815;SDS011;32787;53.316;8.670;2022-08-21T05:17:46;8.38;;;2.85;;
46815;SDS011;32787;53.316;8.670;2022-08-21T05:20:13;5.57;;;2.50;;
46815;SDS011;32787;53.316;8.670;2022-08-21T05:22:39;7.93;;;2.95;;
46815;SDS011;32787;53.316;8.670;2022-08-21T05:25:06;5.53;;;2.33;;
46815;SDS011;32787;53.316;8.670;2022-08-21T05:27:32;5.45;;;2.53;;
46815;SDS011;32787;53.316;8.670;2022-08-21T05:29:58;4.50;;;2.10;;
46815;SDS011;32787;53.316;8.670;2022-08-21T05:32:24;9.73;;;2.58;;
46815;SDS011;32787;53.316;8.670;2022-08-21T05:34:50;6.47;;;2.65;;
46815;SDS011;32787;53.316;8.670;2022-08-21T05:37:16;7.68;;;2.75;;
46815;SDS011;32787;53.316;8.670;2022-08-21T05:39:41;7.97;;;2.63;;
46815;SDS011;32787;53.316;8.670;2022-08-21T05:42:07;7.82;;;2.70;;
46815;SDS011;32787;53.316;8.670;2022-08-21T05:44:33;8.85;;;2.78;;
46815;SDS011;32787;53.316;8.670;2022-08-21T05:47:05;7.93;;;2.80;;
46815;SDS011;32787;53.316;8.670;2022-08-21T05:49:33;7.65;;;3.28;;
46815;SDS011;32787;53.316;8.670;2022-08-21T05:51:59;14.18;;;4.57;;
46815;SDS011;32787;53.316;8.670;2022-08-21T05:54:25;11.57;;;4.28;;
46815;SDS011;32787;53.316;8.670;2022-08-21T05:56:51;13.38;;;6.10;;
46815;SDS011;32787;53.316;8.670;2022-08-21T05:59:17;13.38;;;5.25;;
46815;SDS011;32787;53.316;8.670;2022-08-21T06:01:43;12.93;;;5.35;;
46815;SDS011;32787;53.316;8.670;2022-08-21T06:04:10;11.18;;;5.28;;
46815;SDS011;32787;53.316;8.670;2022-08-21T06:06:36;12.60;;;6.97;;
46815;SDS011;32787;53.316;8.670;2022-08-21T06:09:03;14.05;;;5.88;;
46815;SDS011;32787;53.316;8.670;2022-08-21T06:11:29;10.82;;;5.65;;
46815;SDS011;32787;53.316;8.670;2022-08-21T06:13:55;13.00;;;5.93;;
46815;SDS011;32787;53.316;8.670;2022-08-21T06:16:21;13.57;;;6.38;;
46815;SDS011;32787;53.316;8.670;2022-08-21T06:18:47;13.18;;;6.20;;
46815;SDS011;32787;53.316;8.670;2022-08-21T06:21:13;16.10;;;6.28;;
46815;SDS011;32787;53.316;8.670;2022-08-21T06:23:39;14.25;;;6.90;;
46815;SDS011;32787;53.316;8.670;2022-08-21T06:26:06;14.68;;;6.30;;
46815;SDS011;32787;53.316;8.670;2022-08-21T06:28:33;16.20;;;7.13;;
46815;SDS011;32787;53.316;8.670;2022-08-21T06:31:00;17.67;;;6.63;;
46815;SDS011;32787;53.316;8.670;2022-08-21T06:33:26;13.45;;;6.60;;
46815;SDS011;32787;53.316;8.670;2022-08-21T06:35:52;16.17;;;7.13;;
46815;SDS011;32787;53.316;8.670;2022-08-21T06:38:17;11.82;;;6.47;;
46815;SDS011;32787;53.316;8.670;2022-08-21T06:40:44;13.60;;;6.35;;
46815;SDS011;32787;53.316;8.670;2022-08-21T06:43:13;12.73;;;6.32;;
46815;SDS011;32787;53.316;8.670;2022-08-21T06:45:40;17.75;;;7.40;;
46815;SDS011;32787;53.316;8.670;2022-08-21T06:48:06;11.50;;;6.55;;
46815;SDS011;32787;53.316;8.670;2022-08-21T06:50:32;12.63;;;5.80;;
46815;SDS011;32787;53.316;8.670;2022-08-21T06:52:59;11.20;;;5.85;;
46815;SDS011;32787;53.316;8.670;2022-08-21T06:55:29;13.43;;;5.95;;
46815;SDS011;32787;53.316;8.670;2022-08-21T06:57:55;14.15;;;5.90;;
46815;SDS011;32787;53.316;8.670;2022-08-21T07:00:21;12.70;;;6.00;;
46815;SDS011;32787;53.316;8.670;2022-08-21T07:02:47;13.85;;;5.25;;
46815;SDS011;32787;53.316;8.670;2022-08-21T07:05:13;15.57;;;5.30;;
46815;SDS011;32787;53.316;8.670;2022-08-21T07:07:38;12.80;;;4.90;;
46815;SDS011;32787;53.316;8.670;2022-08-21T07:10:04;11.43;;;5.03;;
46815;SDS011;32787;53.316;8.670;2022-08-21T07:12:30;11.43;;;5.03;;
46815;SDS011;32787;53.316;8.670;2022-08-21T07:14:56;12.77;;;4.38;;
46815;SDS011;32787;53.316;8.670;2022-08-21T07:17:23;13.10;;;4.30;;
46815;SDS011;32787;53.316;8.670;2022-08-21T07:19:48;10.55;;;3.80;;
46815;SDS011;32787;53.316;8.670;2022-08-21T07:22:16;11.43;;;4.07;;
46815;SDS011;32787;53.316;8.670;2022-08-21T07:24:44;13.38;;;3.92;;
46815;SDS011;32787;53.316;8.670;2022-08-21T07:27:09;10.65;;;3.45;;
46815;SDS011;32787;53.316;8.670;2022-08-21T07:29:35;9.95;;;3.35;;
46815;SDS011;32787;53.316;8.670;2022-08-21T07:32:01;13.90;;;4.20;;
46815;SDS011;32787;53.316;8.670;2022-08-21T07:34:27;13.60;;;3.78;;
46815;SDS011;32787;53.316;8.670;2022-08-21T07:36:52;11.73;;;4.07;;
46815;SDS011;32787;53.316;8.670;2022-08-21T07:39:18;10.02;;;3.40;;
46815;SDS011;32787;53.316;8.670;2022-08-21T07:41:43;14.65;;;3.83;;
46815;SDS011;32787;53.316;8.670;2022-08-21T07:44:09;8.65;;;3.35;;
46815;SDS011;32787;53.316;8.670;2022-08-21T07:46:34;9.50;;;3.10;;
46815;SDS011;32787;53.316;8.670;2022-08-21T07:49:00;11.52;;;3.30;;
46815;SDS011;32787;53.316;8.670;2022-08-21T07:51:26;11.85;;;3.50;;
46815;SDS011;32787;53.316;8.670;2022-08-21T07:53:54;9.38;;;3.17;;
46815;SDS011;32787;53.316;8.670;2022-08-21T07:56:22;12.05;;;3.10;;
46815;SDS011;32787;53.316;8.670;2022-08-21T07:58:48;11.10;;;3.30;;
46815;SDS011;32787;53.316;8.670;2022-08-21T08:01:14;8.70;;;3.17;;
46815;SDS011;32787;53.316;8.670;2022-08-21T08:03:39;10.20;;;3.45;;
46815;SDS011;32787;53.316;8.670;2022-08-21T08:06:06;8.35;;;3.33;;
46815;SDS011;32787;53.316;8.670;2022-08-21T08:08:36;11.25;;;3.28;;
46815;SDS011;32787;53.316;8.670;2022-08-21T08:11:06;11.63;;;2.97;;
46815;SDS011;32787;53.316;8.670;2022-08-21T08:13:37;10.48;;;2.85;;
46815;SDS011;32787;53.316;8.670;2022-08-21T08:16:03;10.38;;;2.95;;
46815;SDS011;32787;53.316;8.670;2022-08-21T08:18:29;9.85;;;2.83;;
46815;SDS011;32787;53.316;8.670;2022-08-21T08:20:55;7.97;;;2.67;;
46815;SDS011;32787;53.316;8.670;2022-08-21T08:23:21;11.85;;;2.83;;
46815;SDS011;32787;53.316;8.670;2022-08-21T08:25:47;9.20;;;2.63;;
46815;SDS011;32787;53.316;8.670;2022-08-21T08:28:13;8.32;;;2.60;;
46815;SDS011;32787;53.316;8.670;2022-08-21T08:30:39;10.18;;;2.30;;
46815;SDS011;32787;53.316;8.670;2022-08-21T08:33:04;9.93;;;3.00;;
46815;SDS011;32787;53.316;8.670;2022-08-21T08:35:30;8.15;;;2.72;;
46815;SDS011;32787;53.316;8.670;2022-08-21T08:37:56;9.45;;;3.05;;
46815;SDS011;32787;53.316;8.670;2022-08-21T08:40:24;8.63;;;3.10;;
46815;SDS011;32787;53.316;8.670;2022-08-21T08:42:55;9.23;;;2.55;;
46815;SDS011;32787;53.316;8.670;2022-08-21T08:45:21;11.10;;;2.22;;
46815;SDS011;32787;53.316;8.670;2022-08-21T08:47:52;9.25;;;2.80;;
46815;SDS011;32787;53.316;8.670;2022-08-21T08:50:45;5.75;;;2.08;;
46815;SDS011;32787;53.316;8.670;2022-08-21T08:53:35;9.30;;;2.40;;
46815;SDS011;32787;53.316;8.670;2022-08-21T08:56:06;9.13;;;2.08;;
46815;SDS011;32787;53.316;8.670;2022-08-21T08:58:33;7.50;;;2.08;;
46815;SDS011;32787;53.316;8.670;2022-08-21T09:01:03;7.80;;;2.30;;
46815;SDS011;32787;53.316;8.670;2022-08-21T09:03:42;5.72;;;2.00;;
46815;SDS011;32787;53.316;8.670;2022-08-21T09:06:34;7.20;;;2.15;;
46815;SDS011;32787;53.316;8.670;2022-08-21T09:11:48;6.82;;;1.92;;
46815;SDS011;32787;53.316;8.670;2022-08-21T09:25:34;9.70;;;2.60;;
46815;SDS011;32787;53.316;8.670;2022-08-21T09:28:20;12.73;;;2.67;;
46815;SDS011;32787;53.316;8.670;2022-08-21T09:30:46;7.63;;;2.30;;
46815;SDS011;32787;53.316;8.670;2022-08-21T09:33:11;8.02;;;2.30;;
46815;SDS011;32787;53.316;8.670;2022-08-21T09:35:48;9.88;;;2.17;;
46815;SDS011;32787;53.316;8.670;2022-08-21T09:38:24;8.13;;;2.00;;
46815;SDS011;32787;53.316;8.670;2022-08-21T09:40:58;8.88;;;1.98;;
46815;SDS011;32787;53.316;8.670;2022-08-21T09:43:35;6.32;;;1.60;;
46815;SDS011;32787;53.316;8.670;2022-08-21T09:46:03;6.95;;;1.70;;
46815;SDS011;32787;53.316;8.670;2022-08-21T09:48:29;7.53;;;1.70;;
46815;SDS011;32787;53.316;8.670;2022-08-21T09:51:06;8.48;;;1.88;;
46815;SDS011;32787;53.316;8.670;2022-08-21T09:53:37;10.65;;;1.50;;
46815;SDS011;32787;53.316;8.670;2022-08-21T09:56:18;7.15;;;1.80;;
46815;SDS011;32787;53.316;8.670;2022-08-21T09:59:15;7.70;;;1.83;;
46815;SDS011;32787;53.316;8.670;2022-08-21T10:01:49;6.93;;;2.03;;
46815;SDS011;32787;53.316;8.670;2022-08-21T10:04:19;8.02;;;2.17;;
46815;SDS011;32787;53.316;8.670;2022-08-21T10:06:46;7.95;;;1.90;;
46815;SDS011;32787;53.316;8.670;2022-08-21T10:09:13;7.65;;;1.80;;
46815;SDS011;32787;53.316;8.670;2022-08-21T10:11:42;8.37;;;1.93;;
46815;SDS011;32787;53.316;8.670;2022-08-21T10:14:18;8.80;;;2.03;;
46815;SDS011;32787;53.316;8.670;2022-08-21T10:19:48;8.23;;;2.22;;
46815;SDS011;32787;53.316;8.670;2022-08-21T10:22:37;6.25;;;1.60;;
46815;SDS011;32787;53.316;8.670;2022-08-21T10:27:55;6.72;;;1.48;;
46815;SDS011;32787;53.316;8.670;2022-08-21T10:35:27;9.75;;;1.60;;
46815;SDS011;32787;53.316;8.670;2022-08-21T10:41:13;6.35;;;1.95;;
46815;SDS011;32787;53.316;8.670;2022-08-21T10:49:32;5.53;;;1.50;;
46815;SDS011;32787;53.316;8.670;2022-08-21T10:55:01;7.90;;;1.65;;
46815;SDS011;32787;53.316;8.670;2022-08-21T10:57:37;8.32;;;1.90;;
46815;SDS011;32787;53.316;8.670;2022-08-21T11:00:13;7.45;;;1.70;;
46815;SDS011;32787;53.316;8.670;2022-08-21T11:03:00;5.97;;;1.90;;
46815;SDS011;32787;53.316;8.670;2022-08-21T11:10:45;9.55;;;2.33;;
46815;SDS011;32787;53.316;8.670;2022-08-21T11:13:21;10.70;;;2.22;;
46815;SDS011;32787;53.316;8.670;2022-08-21T11:16:14;5.65;;;1.77;;
46815;SDS011;32787;53.316;8.670;2022-08-21T11:21:37;5.95;;;1.58;;
46815;SDS011;32787;53.316;8.670;2022-08-21T11:30:12;4.90;;;1.25;;
46815;SDS011;32787;53.316;8.670;2022-08-21T11:32:54;4.78;;;1.40;;
46815;SDS011;32787;53.316;8.670;2022-08-21T11:38:22;6.18;;;1.55;;
46815;SDS011;32787;53.316;8.670;2022-08-21T11:43:39;6.28;;;1.40;;
46815;SDS011;32787;53.316;8.670;2022-08-21T11:51:44;7.18;;;1.60;;
46815;SDS011;32787;53.316;8.670;2022-08-21T11:54:36;7.10;;;1.92;;
46815;SDS011;32787;53.316;8.670;2022-08-21T11:57:08;4.97;;;1.23;;
46815;SDS011;32787;53.316;8.670;2022-08-21T11:59:49;6.22;;;1.60;;
46815;SDS011;32787;53.316;8.670;2022-08-21T12:02:23;7.10;;;1.42;;
46815;SDS011;32787;53.316;8.670;2022-08-21T12:04:56;4.50;;;1.35;;
46815;SDS011;32787;53.316;8.670;2022-08-21T12:10:01;9.07;;;1.67;;
46815;SDS011;32787;53.316;8.670;2022-08-21T12:12:31;4.30;;;1.20;;
46815;SDS011;32787;53.316;8.670;2022-08-21T12:17:38;5.78;;;1.70;;
46815;SDS011;32787;53.316;8.670;2022-08-21T12:22:47;5.05;;;1.45;;
46815;SDS011;32787;53.316;8.670;2022-08-21T12:25:18;6.57;;;1.48;;
46815;SDS011;32787;53.316;8.670;2022-08-21T12:27:52;4.40;;;1.30;;
46815;SDS011;32787;53.316;8.670;2022-08-21T12:32:57;5.07;;;1.33;;
46815;SDS011;32787;53.316;8.670;2022-08-21T12:35:26;6.88;;;1.15;;
46815;SDS011;32787;53.316;8.670;2022-08-21T12:43:51;4.95;;;1.40;;
46815;SDS011;32787;53.316;8.670;2022-08-21T12:46:25;6.35;;;1.50;;
46815;SDS011;32787;53.316;8.670;2022-08-21T12:49:30;6.38;;;1.67;;
46815;SDS011;32787;53.316;8.670;2022-08-21T12:54:40;4.35;;;1.23;;
46815;SDS011;32787;53.316;8.670;2022-08-21T12:57:08;6.45;;;1.45;;
46815;SDS011;32787;53.316;8.670;2022-08-21T12:59:42;5.63;;;1.60;;
46815;SDS011;32787;53.316;8.670;2022-08-21T13:02:16;7.00;;;1.50;;
46815;SDS011;32787;53.316;8.670;2022-08-21T13:04:44;6.55;;;1.65;;
46815;SDS011;32787;53.316;8.670;2022-08-21T13:07:13;6.22;;;1.52;;
46815;SDS011;32787;53.316;8.670;2022-08-21T13:09:46;8.27;;;1.73;;
46815;SDS011;32787;53.316;8.670;2022-08-21T13:12:36;5.88;;;1.35;;
46815;SDS011;32787;53.316;8.670;2022-08-21T13:15:03;8.40;;;1.67;;
46815;SDS011;32787;53.316;8.670;2022-08-21T13:17:31;5.85;;;1.38;;
46815;SDS011;32787;53.316;8.670;2022-08-21T13:22:39;4.28;;;1.35;;
46815;SDS011;32787;53.316;8.670;2022-08-21T13:25:09;6.18;;;1.58;;
46815;SDS011;32787;53.316;8.670;2022-08-21T13:27:42;6.50;;;1.50;;
46815;SDS011;32787;53.316;8.670;2022-08-21T13:30:14;4.00;;;1.30;;
46815;SDS011;32787;53.316;8.670;2022-08-21T13:32:46;5.18;;;1.55;;
46815;SDS011;32787;53.316;8.670;2022-08-21T13:35:20;4.53;;;1.38;;
46815;SDS011;32787;53.316;8.670;2022-08-21T13:37:50;4.43;;;1.25;;
46815;SDS011;32787;53.316;8.670;2022-08-21T13:40:18;4.93;;;1.30;;
46815;SDS011;32787;53.316;8.670;2022-08-21T13:43:12;7.13;;;1.60;;
46815;SDS011;32787;53.316;8.670;2022-08-21T13:45:43;5.40;;;1.67;;
46815;SDS011;32787;53.316;8.670;2022-08-21T13:48:12;4.65;;;1.23;;
46815;SDS011;32787;53.316;8.670;2022-08-21T13:50:38;4.43;;;1.45;;
46815;SDS011;32787;53.316;8.670;2022-08-21T13:53:06;3.92;;;1.20;;
46815;SDS011;32787;53.316;8.670;2022-08-21T13:55:43;3.97;;;1.17;;
46815;SDS011;32787;53.316;8.670;2022-08-21T13:58:10;7.80;;;1.58;;
46815;SDS011;32787;53.316;8.670;2022-08-21T14:00:46;3.67;;;1.00;;
46815;SDS011;32787;53.316;8.670;2022-08-21T14:03:23;5.78;;;1.27;;
46815;SDS011;32787;53.316;8.670;2022-08-21T14:05:59;3.22;;;1.00;;
46815;SDS011;32787;53.316;8.670;2022-08-21T14:08:27;6.55;;;1.50;;
46815;SDS011;32787;53.316;8.670;2022-08-21T14:11:04;4.00;;;1.25;;
46815;SDS011;32787;53.316;8.670;2022-08-21T14:16:18;5.15;;;1.33;;
46815;SDS011;32787;53.316;8.670;2022-08-21T14:21:31;6.30;;;1.40;;
46815;SDS011;32787;53.316;8.670;2022-08-21T14:24:01;4.22;;;1.10;;
46815;SDS011;32787;53.316;8.670;2022-08-21T14:26:34;5.78;;;1.38;;
46815;SDS011;32787;53.316;8.670;2022-08-21T14:29:01;5.15;;;1.10;;
46815;SDS011;32787;53.316;8.670;2022-08-21T14:31:31;4.50;;;1.20;;
46815;SDS011;32787;53.316;8.670;2022-08-21T14:33:59;4.25;;;1.23;;
46815;SDS011;32787;53.316;8.670;2022-08-21T14:36:24;3.63;;;1.00;;
46815;SDS011;32787;53.316;8.670;2022-08-21T14:38:50;3.00;;;1.00;;
46815;SDS011;32787;53.316;8.670;2022-08-21T14:41:21;2.80;;;1.00;;
46815;SDS011;32787;53.316;8.670;2022-08-21T14:43:50;3.53;;;1.05;;
46815;SDS011;32787;53.316;8.670;2022-08-21T14:46:21;4.47;;;1.10;;
46815;SDS011;32787;53.316;8.670;2022-08-21T14:48:49;5.85;;;1.15;;
46815;SDS011;32787;53.316;8.670;2022-08-21T14:51:16;4.78;;;1.20;;
46815;SDS011;32787;53.316;8.670;2022-08-21T14:53:42;3.03;;;1.00;;
46815;SDS011;32787;53.316;8.670;2022-08-21T14:56:09;4.60;;;1.33;;
46815;SDS011;32787;53.316;8.670;2022-08-21T14:58:37;4.50;;;1.20;;
46815;SDS011;32787;53.316;8.670;2022-08-21T15:01:06;3.92;;;1.10;;
46815;SDS011;32787;53.316;8.670;2022-08-21T15:03:33;3.55;;;1.02;;
46815;SDS011;32787;53.316;8.670;2022-08-21T15:05:59;4.80;;;1.23;;
46815;SDS011;32787;53.316;8.670;2022-08-21T15:08:25;4.00;;;1.20;;
46815;SDS011;32787;53.316;8.670;2022-08-21T15:10:51;4.15;;;1.13;;
46815;SDS011;32787;53.316;8.670;2022-08-21T15:13:17;4.78;;;1.23;;
46815;SDS011;32787;53.316;8.670;2022-08-21T15:15:44;5.40;;;1.48;;
46815;SDS011;32787;53.316;8.670;2022-08-21T15:18:12;7.05;;;1.20;;
46815;SDS011;32787;53.316;8.670;2022-08-21T15:20:38;3.47;;;1.05;;
46815;SDS011;32787;53.316;8.670;2022-08-21T15:23:05;3.67;;;1.20;;
46815;SDS011;32787;53.316;8.670;2022-08-21T15:25:32;3.88;;;1.17;;
46815;SDS011;32787;53.316;8.670;2022-08-21T15:27:59;4.30;;;1.40;;
46815;SDS011;32787;53.316;8.670;2022-08-21T15:30:25;6.80;;;1.35;;
46815;SDS011;32787;53.316;8.670;2022-08-21T15:32:51;4.85;;;1.10;;
46815;SDS011;32787;53.316;8.670;2022-08-21T15:35:17;4.90;;;1.20;;
46815;SDS011;32787;53.316;8.670;2022-08-21T15:37:42;4.22;;;1.13;;
46815;SDS011;32787;53.316;8.670;2022-08-21T15:40:08;4.53;;;1.30;;
46815;SDS011;32787;53.316;8.670;2022-08-21T15:42:35;3.75;;;0.93;;
46815;SDS011;32787;53.316;8.670;2022-08-21T15:45:03;2.97;;;1.00;;
46815;SDS011;32787;53.316;8.670;2022-08-21T15:47:30;5.72;;;1.00;;
46815;SDS011;32787;53.316;8.670;2022-08-21T15:49:59;6.85;;;1.33;;
46815;SDS011;32787;53.316;8.670;2022-08-21T15:52:25;5.10;;;1.25;;
46815;SDS011;32787;53.316;8.670;2022-08-21T15:54:51;6.95;;;1.40;;
46815;SDS011;32787;53.316;8.670;2022-08-21T15:57:19;5.05;;;1.65;;
46815;SDS011;32787;53.316;8.670;2022-08-21T16:02:17;8.32;;;1.75;;
46815;SDS011;32787;53.316;8.670;2022-08-21T16:04:47;6.88;;;1.77;;
46815;SDS011;32787;53.316;8.670;2022-08-21T16:07:13;9.02;;;1.90;;
46815;SDS011;32787;53.316;8.670;2022-08-21T16:09:39;9.57;;;2.03;;
46815;SDS011;32787;53.316;8.670;2022-08-21T16:12:05;9.38;;;2.10;;
46815;SDS011;32787;53.316;8.670;2022-08-21T16:14:31;7.15;;;2.17;;
46815;SDS011;32787;53.316;8.670;2022-08-21T16:16:59;9.88;;;2.25;;
46815;SDS011;32787;53.316;8.670;2022-08-21T16:19:25;7.95;;;2.17;;
46815;SDS011;32787;53.316;8.670;2022-08-21T16:21:53;6.45;;;2.13;;
46815;SDS011;32787;53.316;8.670;2022-08-21T16:24:19;9.05;;;2.10;;
46815;SDS011;32787;53.316;8.670;2022-08-21T16:26:44;11.63;;;2.55;;